sensor_id;sensor_type;location;lat;lon;timestamp;P1;durP1;ratioP1;P2;durP2;ratioP2
54139;SDS011;40046;53.254;5.900;2023-08-21T00:00:05;6.05;;;2.50;;
54139;SDS011;40046;53.254;5.900;2023-08-21T00:02:31;6.70;;;2.35;;
54139;SDS011;40046;53.254;5.900;2023-08-21T00:04:57;5.45;;;2.45;;
54139;SDS011;40046;53.254;5.900;2023-08-21T00:07:23;7.95;;;2.67;;
54139;SDS011;40046;53.254;5.900;2023-08-21T00:09:50;8.40;;;2.88;;
54139;SDS011;40046;53.254;5.900;2023-08-21T00:12:16;8.25;;;2.70;;
54139;SDS011;40046;53.254;5.900;2023-08-21T00:14:42;7.78;;;2.53;;
54139;SDS011;40046;53.254;5.900;2023-08-21T00:17:08;7.15;;;3.22;;
54139;SDS011;40046;53.254;5.900;2023-08-21T00:19:35;7.55;;;2.70;;
54139;SDS011;40046;53.254;5.900;2023-08-21T00:22:01;7.45;;;2.72;;
54139;SDS011;40046;53.254;5.900;2023-08-21T00:24:27;6.65;;;2.90;;
54139;SDS011;40046;53.254;5.900;2023-08-21T00:26:53;8.38;;;2.92;;
54139;SDS011;40046;53.254;5.900;2023-08-21T00:29:20;6.30;;;2.65;;
54139;SDS011;40046;53.254;5.900;2023-08-21T00:31:46;8.50;;;2.90;;
54139;SDS011;40046;53.254;5.900;2023-08-21T00:34:12;10.05;;;3.22;;
54139;SDS011;40046;53.254;5.900;2023-08-21T00:36:38;8.13;;;3.15;;
54139;SDS011;40046;53.254;5.900;2023-08-21T00:39:04;7.88;;;3.17;;
54139;SDS011;40046;53.254;5.900;2023-08-21T00:41:31;9.32;;;4.07;;
54139;SDS011;40046;53.254;5.900;2023-08-21T00:43:59;9.23;;;3.92;;
54139;SDS011;40046;53.254;5.900;2023-08-21T00:46:25;5.75;;;4.03;;
54139;SDS011;40046;53.254;5.900;2023-08-21T00:48:51;7.57;;;3.13;;
54139;SDS011;40046;53.254;5.900;2023-08-21T00:51:18;6.93;;;3.88;;
54139;SDS011;40046;53.254;5.900;2023-08-21T00:53:44;8.10;;;3.47;;
54139;SDS011;40046;53.254;5.900;2023-08-21T00:56:11;8.05;;;4.07;;
54139;SDS011;40046;53.254;5.900;2023-08-21T00:58:38;13.07;;;4.00;;
54139;SDS011;40046;53.254;5.900;2023-08-21T01:01:04;7.45;;;3.92;;
54139;SDS011;40046;53.254;5.900;2023-08-21T01:03:30;9.80;;;4.38;;
54139;SDS011;40046;53.254;5.900;2023-08-21T01:05:56;11.63;;;5.38;;
54139;SDS011;40046;53.254;5.900;2023-08-21T01:11:06;5.95;;;3.20;;
54139;SDS011;40046;53.254;5.900;2023-08-21T01:16:06;7.30;;;3.25;;
54139;SDS011;40046;53.254;5.900;2023-08-21T01:18:33;9.43;;;3.92;;
54139;SDS011;40046;53.254;5.900;2023-08-21T01:21:02;7.53;;;3.65;;
54139;SDS011;40046;53.254;5.900;2023-08-21T01:25:55;11.07;;;3.75;;
54139;SDS011;40046;53.254;5.900;2023-08-21T01:28:22;5.38;;;3.47;;
54139;SDS011;40046;53.254;5.900;2023-08-21T01:30:48;11.07;;;5.03;;
54139;SDS011;40046;53.254;5.900;2023-08-21T01:33:17;9.23;;;3.78;;
54139;SDS011;40046;53.254;5.900;2023-08-21T01:35:44;5.68;;;3.20;;
54139;SDS011;40046;53.254;5.900;2023-08-21T01:38:10;9.30;;;3.75;;
54139;SDS011;40046;53.254;5.900;2023-08-21T01:40:37;7.93;;;3.50;;
54139;SDS011;40046;53.254;5.900;2023-08-21T01:43:03;7.63;;;3.20;;
54139;SDS011;40046;53.254;5.900;2023-08-21T01:45:29;5.80;;;3.03;;
54139;SDS011;40046;53.254;5.900;2023-08-21T01:47:55;7.88;;;3.40;;
54139;SDS011;40046;53.254;5.900;2023-08-21T01:50:21;7.47;;;4.13;;
54139;SDS011;40046;53.254;5.900;2023-08-21T01:52:47;9.82;;;3.63;;
54139;SDS011;40046;53.254;5.900;2023-08-21T01:55:14;8.00;;;3.67;;
54139;SDS011;40046;53.254;5.900;2023-08-21T01:57:40;8.57;;;3.45;;
54139;SDS011;40046;53.254;5.900;2023-08-21T02:00:07;8.40;;;3.30;;
54139;SDS011;40046;53.254;5.900;2023-08-21T02:02:40;8.10;;;3.22;;
54139;SDS011;40046;53.254;5.900;2023-08-21T02:05:06;9.18;;;4.18;;
54139;SDS011;40046;53.254;5.900;2023-08-21T02:07:32;8.05;;;3.28;;
54139;SDS011;40046;53.254;5.900;2023-08-21T02:09:58;9.60;;;4.75;;
54139;SDS011;40046;53.254;5.900;2023-08-21T02:12:25;7.55;;;3.30;;
54139;SDS011;40046;53.254;5.900;2023-08-21T02:14:52;6.97;;;3.30;;
54139;SDS011;40046;53.254;5.900;2023-08-21T02:17:19;5.60;;;2.50;;
54139;SDS011;40046;53.254;5.900;2023-08-21T02:19:45;8.10;;;3.55;;
54139;SDS011;40046;53.254;5.900;2023-08-21T02:22:12;6.88;;;3.53;;
54139;SDS011;40046;53.254;5.900;2023-08-21T02:24:38;9.10;;;3.95;;
54139;SDS011;40046;53.254;5.900;2023-08-21T02:27:04;6.75;;;3.42;;
54139;SDS011;40046;53.254;5.900;2023-08-21T02:29:31;5.72;;;3.03;;
54139;SDS011;40046;53.254;5.900;2023-08-21T02:31:57;7.30;;;3.42;;
54139;SDS011;40046;53.254;5.900;2023-08-21T02:34:24;8.38;;;3.67;;
54139;SDS011;40046;53.254;5.900;2023-08-21T02:36:50;7.55;;;3.13;;
54139;SDS011;40046;53.254;5.900;2023-08-21T02:39:16;10.23;;;3.85;;
54139;SDS011;40046;53.254;5.900;2023-08-21T02:41:42;7.85;;;3.50;;
54139;SDS011;40046;53.254;5.900;2023-08-21T02:44:08;5.70;;;3.25;;
54139;SDS011;40046;53.254;5.900;2023-08-21T02:46:34;8.48;;;3.35;;
54139;SDS011;40046;53.254;5.900;2023-08-21T02:49:03;6.93;;;3.15;;
54139;SDS011;40046;53.254;5.900;2023-08-21T02:51:29;9.63;;;4.30;;
54139;SDS011;40046;53.254;5.900;2023-08-21T02:53:55;7.78;;;3.50;;
54139;SDS011;40046;53.254;5.900;2023-08-21T02:56:21;5.68;;;3.10;;
54139;SDS011;40046;53.254;5.900;2023-08-21T02:58:47;9.05;;;3.90;;
54139;SDS011;40046;53.254;5.900;2023-08-21T03:01:13;5.95;;;3.70;;
54139;SDS011;40046;53.254;5.900;2023-08-21T03:03:39;6.45;;;3.38;;
54139;SDS011;40046;53.254;5.900;2023-08-21T03:06:06;7.35;;;3.88;;
54139;SDS011;40046;53.254;5.900;2023-08-21T03:08:32;9.20;;;3.78;;
54139;SDS011;40046;53.254;5.900;2023-08-21T03:10:58;6.68;;;3.92;;
54139;SDS011;40046;53.254;5.900;2023-08-21T03:13:24;5.93;;;3.65;;
54139;SDS011;40046;53.254;5.900;2023-08-21T03:15:50;8.75;;;4.30;;
54139;SDS011;40046;53.254;5.900;2023-08-21T03:18:17;7.30;;;3.47;;
54139;SDS011;40046;53.254;5.900;2023-08-21T03:20:46;6.32;;;3.40;;
54139;SDS011;40046;53.254;5.900;2023-08-21T03:23:13;9.98;;;4.55;;
54139;SDS011;40046;53.254;5.900;2023-08-21T03:25:39;9.65;;;4.53;;
54139;SDS011;40046;53.254;5.900;2023-08-21T03:28:06;9.82;;;3.70;;
54139;SDS011;40046;53.254;5.900;2023-08-21T03:30:32;6.72;;;4.22;;
54139;SDS011;40046;53.254;5.900;2023-08-21T03:32:59;6.28;;;3.90;;
54139;SDS011;40046;53.254;5.900;2023-08-21T03:35:25;6.55;;;3.75;;
54139;SDS011;40046;53.254;5.900;2023-08-21T03:37:51;7.47;;;3.88;;
54139;SDS011;40046;53.254;5.900;2023-08-21T03:40:17;5.28;;;3.40;;
54139;SDS011;40046;53.254;5.900;2023-08-21T03:42:45;8.27;;;4.03;;
54139;SDS011;40046;53.254;5.900;2023-08-21T03:45:12;8.50;;;3.53;;
54139;SDS011;40046;53.254;5.900;2023-08-21T03:47:38;6.03;;;3.25;;
54139;SDS011;40046;53.254;5.900;2023-08-21T03:50:11;6.88;;;3.70;;
54139;SDS011;40046;53.254;5.900;2023-08-21T03:52:37;5.95;;;3.08;;
54139;SDS011;40046;53.254;5.900;2023-08-21T03:55:03;8.15;;;3.00;;
54139;SDS011;40046;53.254;5.900;2023-08-21T03:57:30;7.18;;;3.40;;
54139;SDS011;40046;53.254;5.900;2023-08-21T03:59:57;7.20;;;2.90;;
54139;SDS011;40046;53.254;5.900;2023-08-21T04:02:23;7.03;;;3.78;;
54139;SDS011;40046;53.254;5.900;2023-08-21T04:04:50;7.35;;;3.80;;
54139;SDS011;40046;53.254;5.900;2023-08-21T04:07:17;5.53;;;3.33;;
54139;SDS011;40046;53.254;5.900;2023-08-21T04:09:44;6.55;;;2.90;;
54139;SDS011;40046;53.254;5.900;2023-08-21T04:12:10;7.18;;;2.83;;
54139;SDS011;40046;53.254;5.900;2023-08-21T04:14:38;6.18;;;2.90;;
54139;SDS011;40046;53.254;5.900;2023-08-21T04:17:04;6.80;;;3.08;;
54139;SDS011;40046;53.254;5.900;2023-08-21T04:19:30;4.35;;;2.60;;
54139;SDS011;40046;53.254;5.900;2023-08-21T04:22:00;5.70;;;2.78;;
54139;SDS011;40046;53.254;5.900;2023-08-21T04:24:27;4.45;;;2.80;;
54139;SDS011;40046;53.254;5.900;2023-08-21T04:26:53;5.25;;;2.50;;
54139;SDS011;40046;53.254;5.900;2023-08-21T04:29:19;7.20;;;3.10;;
54139;SDS011;40046;53.254;5.900;2023-08-21T04:31:45;4.72;;;3.05;;
54139;SDS011;40046;53.254;5.900;2023-08-21T04:34:12;5.13;;;2.92;;
54139;SDS011;40046;53.254;5.900;2023-08-21T04:36:39;5.85;;;2.80;;
54139;SDS011;40046;53.254;5.900;2023-08-21T04:39:05;3.85;;;2.45;;
54139;SDS011;40046;53.254;5.900;2023-08-21T04:41:33;5.13;;;2.75;;
54139;SDS011;40046;53.254;5.900;2023-08-21T04:43:59;6.30;;;2.80;;
54139;SDS011;40046;53.254;5.900;2023-08-21T04:46:26;2.65;;;1.85;;
54139;SDS011;40046;53.254;5.900;2023-08-21T04:48:52;4.20;;;2.35;;
54139;SDS011;40046;53.254;5.900;2023-08-21T04:51:18;5.45;;;2.47;;
54139;SDS011;40046;53.254;5.900;2023-08-21T04:53:46;3.33;;;1.70;;
54139;SDS011;40046;53.254;5.900;2023-08-21T04:56:16;3.67;;;1.88;;
54139;SDS011;40046;53.254;5.900;2023-08-21T04:58:42;5.15;;;2.45;;
54139;SDS011;40046;53.254;5.900;2023-08-21T05:01:09;4.25;;;2.33;;
54139;SDS011;40046;53.254;5.900;2023-08-21T05:03:39;4.00;;;2.45;;
54139;SDS011;40046;53.254;5.900;2023-08-21T05:06:06;3.88;;;2.63;;
54139;SDS011;40046;53.254;5.900;2023-08-21T05:08:33;4.53;;;2.28;;
54139;SDS011;40046;53.254;5.900;2023-08-21T05:11:01;4.70;;;2.38;;
54139;SDS011;40046;53.254;5.900;2023-08-21T05:13:30;3.38;;;2.25;;
54139;SDS011;40046;53.254;5.900;2023-08-21T05:15:58;3.25;;;2.45;;
54139;SDS011;40046;53.254;5.900;2023-08-21T05:18:28;4.82;;;3.00;;
54139;SDS011;40046;53.254;5.900;2023-08-21T05:20:54;5.63;;;3.85;;
54139;SDS011;40046;53.254;5.900;2023-08-21T05:23:21;6.35;;;4.30;;
54139;SDS011;40046;53.254;5.900;2023-08-21T05:25:50;6.15;;;3.15;;
54139;SDS011;40046;53.254;5.900;2023-08-21T05:28:16;4.90;;;3.10;;
54139;SDS011;40046;53.254;5.900;2023-08-21T05:30:42;5.32;;;4.30;;
54139;SDS011;40046;53.254;5.900;2023-08-21T05:33:08;4.68;;;3.55;;
54139;SDS011;40046;53.254;5.900;2023-08-21T05:35:35;6.38;;;3.83;;
54139;SDS011;40046;53.254;5.900;2023-08-21T05:38:02;8.77;;;4.35;;
54139;SDS011;40046;53.254;5.900;2023-08-21T05:40:29;11.73;;;5.88;;
54139;SDS011;40046;53.254;5.900;2023-08-21T05:42:55;7.80;;;4.65;;
54139;SDS011;40046;53.254;5.900;2023-08-21T05:45:22;6.35;;;4.32;;
54139;SDS011;40046;53.254;5.900;2023-08-21T05:47:48;14.35;;;5.97;;
54139;SDS011;40046;53.254;5.900;2023-08-21T05:50:14;11.13;;;4.82;;
54139;SDS011;40046;53.254;5.900;2023-08-21T05:52:40;9.05;;;4.88;;
54139;SDS011;40046;53.254;5.900;2023-08-21T05:55:07;9.63;;;5.53;;
54139;SDS011;40046;53.254;5.900;2023-08-21T05:57:33;7.50;;;5.15;;
54139;SDS011;40046;53.254;5.900;2023-08-21T06:00:00;7.22;;;4.60;;
54139;SDS011;40046;53.254;5.900;2023-08-21T06:02:28;11.85;;;4.55;;
54139;SDS011;40046;53.254;5.900;2023-08-21T06:04:55;7.13;;;4.57;;
54139;SDS011;40046;53.254;5.900;2023-08-21T06:07:23;11.45;;;4.75;;
54139;SDS011;40046;53.254;5.900;2023-08-21T06:09:49;9.35;;;4.82;;
54139;SDS011;40046;53.254;5.900;2023-08-21T06:12:15;8.07;;;5.15;;
54139;SDS011;40046;53.254;5.900;2023-08-21T06:14:42;13.02;;;5.25;;
54139;SDS011;40046;53.254;5.900;2023-08-21T06:17:09;11.40;;;5.00;;
54139;SDS011;40046;53.254;5.900;2023-08-21T06:19:35;10.15;;;5.85;;
54139;SDS011;40046;53.254;5.900;2023-08-21T06:22:02;11.27;;;6.22;;
54139;SDS011;40046;53.254;5.900;2023-08-21T06:24:28;9.35;;;5.43;;
54139;SDS011;40046;53.254;5.900;2023-08-21T06:27:00;9.38;;;4.85;;
54139;SDS011;40046;53.254;5.900;2023-08-21T06:29:26;12.30;;;5.57;;
54139;SDS011;40046;53.254;5.900;2023-08-21T06:31:53;12.40;;;5.70;;
54139;SDS011;40046;53.254;5.900;2023-08-21T06:34:21;15.80;;;6.35;;
54139;SDS011;40046;53.254;5.900;2023-08-21T06:36:47;8.63;;;4.25;;
54139;SDS011;40046;53.254;5.900;2023-08-21T06:39:13;8.82;;;4.30;;
54139;SDS011;40046;53.254;5.900;2023-08-21T06:41:39;14.07;;;4.75;;
54139;SDS011;40046;53.254;5.900;2023-08-21T06:44:06;12.18;;;4.65;;
54139;SDS011;40046;53.254;5.900;2023-08-21T06:46:34;11.00;;;4.45;;
54139;SDS011;40046;53.254;5.900;2023-08-21T06:49:02;11.65;;;4.82;;
54139;SDS011;40046;53.254;5.900;2023-08-21T06:51:28;9.82;;;4.28;;
54139;SDS011;40046;53.254;5.900;2023-08-21T06:53:54;10.30;;;4.00;;
54139;SDS011;40046;53.254;5.900;2023-08-21T06:56:21;9.60;;;4.38;;
54139;SDS011;40046;53.254;5.900;2023-08-21T06:58:47;9.93;;;4.40;;
54139;SDS011;40046;53.254;5.900;2023-08-21T07:01:13;9.15;;;3.75;;
54139;SDS011;40046;53.254;5.900;2023-08-21T07:03:39;12.32;;;4.70;;
54139;SDS011;40046;53.254;5.900;2023-08-21T07:06:05;9.50;;;4.38;;
54139;SDS011;40046;53.254;5.900;2023-08-21T07:08:32;6.82;;;3.63;;
54139;SDS011;40046;53.254;5.900;2023-08-21T07:10:58;9.60;;;4.45;;
54139;SDS011;40046;53.254;5.900;2023-08-21T07:13:29;12.13;;;4.65;;
54139;SDS011;40046;53.254;5.900;2023-08-21T07:15:55;8.25;;;4.43;;
54139;SDS011;40046;53.254;5.900;2023-08-21T07:18:21;9.98;;;4.72;;
54139;SDS011;40046;53.254;5.900;2023-08-21T07:20:48;10.57;;;4.78;;
54139;SDS011;40046;53.254;5.900;2023-08-21T07:23:14;9.88;;;4.15;;
54139;SDS011;40046;53.254;5.900;2023-08-21T07:25:40;10.13;;;4.78;;
54139;SDS011;40046;53.254;5.900;2023-08-21T07:28:06;8.27;;;4.95;;
54139;SDS011;40046;53.254;5.900;2023-08-21T07:30:32;11.45;;;4.43;;
54139;SDS011;40046;53.254;5.900;2023-08-21T07:32:59;8.25;;;5.00;;
54139;SDS011;40046;53.254;5.900;2023-08-21T07:35:25;10.88;;;4.53;;
54139;SDS011;40046;53.254;5.900;2023-08-21T07:37:51;12.63;;;5.10;;
54139;SDS011;40046;53.254;5.900;2023-08-21T07:40:17;9.60;;;4.75;;
54139;SDS011;40046;53.254;5.900;2023-08-21T07:42:43;13.18;;;5.43;;
54139;SDS011;40046;53.254;5.900;2023-08-21T07:45:09;13.77;;;5.78;;
54139;SDS011;40046;53.254;5.900;2023-08-21T07:47:36;9.73;;;4.57;;
54139;SDS011;40046;53.254;5.900;2023-08-21T07:50:02;10.07;;;4.53;;
54139;SDS011;40046;53.254;5.900;2023-08-21T07:52:28;10.05;;;4.32;;
54139;SDS011;40046;53.254;5.900;2023-08-21T07:54:54;17.70;;;5.30;;
54139;SDS011;40046;53.254;5.900;2023-08-21T07:57:21;11.20;;;4.93;;
54139;SDS011;40046;53.254;5.900;2023-08-21T07:59:47;11.60;;;6.05;;
54139;SDS011;40046;53.254;5.900;2023-08-21T08:02:13;11.52;;;6.20;;
54139;SDS011;40046;53.254;5.900;2023-08-21T08:04:39;11.75;;;5.82;;
54139;SDS011;40046;53.254;5.900;2023-08-21T08:07:08;11.02;;;6.93;;
54139;SDS011;40046;53.254;5.900;2023-08-21T08:09:34;11.18;;;5.13;;
54139;SDS011;40046;53.254;5.900;2023-08-21T08:12:01;12.77;;;5.60;;
54139;SDS011;40046;53.254;5.900;2023-08-21T08:14:27;11.80;;;5.22;;
54139;SDS011;40046;53.254;5.900;2023-08-21T08:16:53;11.85;;;5.03;;
54139;SDS011;40046;53.254;5.900;2023-08-21T08:19:19;7.90;;;5.10;;
54139;SDS011;40046;53.254;5.900;2023-08-21T08:21:49;11.50;;;5.85;;
54139;SDS011;40046;53.254;5.900;2023-08-21T08:24:15;13.48;;;5.10;;
54139;SDS011;40046;53.254;5.900;2023-08-21T08:26:41;15.45;;;5.47;;
54139;SDS011;40046;53.254;5.900;2023-08-21T08:29:08;7.90;;;4.25;;
54139;SDS011;40046;53.254;5.900;2023-08-21T08:31:34;11.88;;;4.47;;
54139;SDS011;40046;53.254;5.900;2023-08-21T08:34:00;11.77;;;4.40;;
54139;SDS011;40046;53.254;5.900;2023-08-21T08:36:26;9.65;;;4.30;;
54139;SDS011;40046;53.254;5.900;2023-08-21T08:38:53;13.07;;;4.57;;
54139;SDS011;40046;53.254;5.900;2023-08-21T08:41:24;8.63;;;3.70;;
54139;SDS011;40046;53.254;5.900;2023-08-21T08:43:54;16.10;;;3.85;;
54139;SDS011;40046;53.254;5.900;2023-08-21T08:46:22;10.05;;;3.17;;
54139;SDS011;40046;53.254;5.900;2023-08-21T08:48:49;10.70;;;3.08;;
54139;SDS011;40046;53.254;5.900;2023-08-21T08:51:16;10.70;;;3.20;;
54139;SDS011;40046;53.254;5.900;2023-08-21T08:53:42;8.68;;;3.38;;
54139;SDS011;40046;53.254;5.900;2023-08-21T08:56:08;10.57;;;3.33;;
54139;SDS011;40046;53.254;5.900;2023-08-21T08:58:34;12.50;;;3.50;;
54139;SDS011;40046;53.254;5.900;2023-08-21T09:01:00;8.68;;;3.25;;
54139;SDS011;40046;53.254;5.900;2023-08-21T09:03:27;9.23;;;3.38;;
54139;SDS011;40046;53.254;5.900;2023-08-21T09:05:54;9.23;;;3.17;;
54139;SDS011;40046;53.254;5.900;2023-08-21T09:08:20;10.32;;;2.67;;
54139;SDS011;40046;53.254;5.900;2023-08-21T09:10:46;13.73;;;3.63;;
54139;SDS011;40046;53.254;5.900;2023-08-21T09:13:16;8.32;;;3.03;;
54139;SDS011;40046;53.254;5.900;2023-08-21T09:15:46;9.20;;;2.90;;
54139;SDS011;40046;53.254;5.900;2023-08-21T09:18:12;10.25;;;2.63;;
54139;SDS011;40046;53.254;5.900;2023-08-21T09:20:40;12.20;;;3.42;;
54139;SDS011;40046;53.254;5.900;2023-08-21T09:23:06;7.40;;;3.03;;
54139;SDS011;40046;53.254;5.900;2023-08-21T09:25:37;6.75;;;2.15;;
54139;SDS011;40046;53.254;5.900;2023-08-21T09:28:04;8.45;;;2.72;;
54139;SDS011;40046;53.254;5.900;2023-08-21T09:30:42;8.60;;;2.15;;
54139;SDS011;40046;53.254;5.900;2023-08-21T09:33:09;11.02;;;2.38;;
54139;SDS011;40046;53.254;5.900;2023-08-21T09:35:35;6.45;;;2.55;;
54139;SDS011;40046;53.254;5.900;2023-08-21T09:38:01;7.65;;;2.13;;
54139;SDS011;40046;53.254;5.900;2023-08-21T09:40:28;8.65;;;2.90;;
54139;SDS011;40046;53.254;5.900;2023-08-21T09:42:55;6.35;;;2.22;;
54139;SDS011;40046;53.254;5.900;2023-08-21T09:45:25;10.90;;;4.25;;
54139;SDS011;40046;53.254;5.900;2023-08-21T09:47:52;6.13;;;2.33;;
54139;SDS011;40046;53.254;5.900;2023-08-21T09:50:18;12.23;;;2.50;;
54139;SDS011;40046;53.254;5.900;2023-08-21T09:52:45;9.73;;;3.38;;
54139;SDS011;40046;53.254;5.900;2023-08-21T09:55:14;8.50;;;2.72;;
54139;SDS011;40046;53.254;5.900;2023-08-21T09:57:40;7.13;;;2.50;;
54139;SDS011;40046;53.254;5.900;2023-08-21T10:00:10;9.90;;;2.47;;
54139;SDS011;40046;53.254;5.900;2023-08-21T10:02:43;10.57;;;3.83;;
54139;SDS011;40046;53.254;5.900;2023-08-21T10:05:13;4.78;;;1.63;;
54139;SDS011;40046;53.254;5.900;2023-08-21T10:07:39;7.95;;;2.30;;
54139;SDS011;40046;53.254;5.900;2023-08-21T10:10:07;8.45;;;1.88;;
54139;SDS011;40046;53.254;5.900;2023-08-21T10:12:34;6.30;;;1.73;;
54139;SDS011;40046;53.254;5.900;2023-08-21T10:15:00;7.72;;;1.75;;
54139;SDS011;40046;53.254;5.900;2023-08-21T10:17:26;5.78;;;1.25;;
54139;SDS011;40046;53.254;5.900;2023-08-21T10:19:53;7.53;;;1.48;;
54139;SDS011;40046;53.254;5.900;2023-08-21T10:25:07;9.27;;;2.33;;
54139;SDS011;40046;53.254;5.900;2023-08-21T10:27:40;7.28;;;1.73;;
54139;SDS011;40046;53.254;5.900;2023-08-21T10:30:40;11.23;;;2.80;;
54139;SDS011;40046;53.254;5.900;2023-08-21T10:33:00;8.48;;;2.22;;
54139;SDS011;40046;53.254;5.900;2023-08-21T10:35:31;5.43;;;1.48;;
54139;SDS011;40046;53.254;5.900;2023-08-21T10:38:05;8.75;;;1.80;;
54139;SDS011;40046;53.254;5.900;2023-08-21T10:40:35;4.85;;;1.25;;
54139;SDS011;40046;53.254;5.900;2023-08-21T10:43:02;6.78;;;1.50;;
54139;SDS011;40046;53.254;5.900;2023-08-21T10:45:28;10.35;;;2.33;;
54139;SDS011;40046;53.254;5.900;2023-08-21T10:47:58;5.63;;;1.40;;
54139;SDS011;40046;53.254;5.900;2023-08-21T10:50:25;5.60;;;1.70;;
54139;SDS011;40046;53.254;5.900;2023-08-21T10:52:52;5.03;;;1.13;;
54139;SDS011;40046;53.254;5.900;2023-08-21T10:55:19;8.98;;;3.08;;
54139;SDS011;40046;53.254;5.900;2023-08-21T10:57:46;7.18;;;2.45;;
54139;SDS011;40046;53.254;5.900;2023-08-21T11:00:14;11.48;;;2.03;;
54139;SDS011;40046;53.254;5.900;2023-08-21T11:02:41;8.85;;;1.63;;
54139;SDS011;40046;53.254;5.900;2023-08-21T11:05:07;8.77;;;2.22;;
54139;SDS011;40046;53.254;5.900;2023-08-21T11:07:44;8.57;;;2.15;;
54139;SDS011;40046;53.254;5.900;2023-08-21T11:10:11;9.13;;;2.08;;
54139;SDS011;40046;53.254;5.900;2023-08-21T11:12:38;6.57;;;1.65;;
54139;SDS011;40046;53.254;5.900;2023-08-21T11:15:04;9.95;;;2.45;;
54139;SDS011;40046;53.254;5.900;2023-08-21T11:17:31;9.20;;;2.90;;
54139;SDS011;40046;53.254;5.900;2023-08-21T11:19:57;9.75;;;2.78;;
54139;SDS011;40046;53.254;5.900;2023-08-21T11:22:28;6.70;;;2.03;;
54139;SDS011;40046;53.254;5.900;2023-08-21T11:24:55;6.53;;;2.40;;
54139;SDS011;40046;53.254;5.900;2023-08-21T11:27:21;14.70;;;2.25;;
54139;SDS011;40046;53.254;5.900;2023-08-21T11:29:49;7.93;;;2.05;;
54139;SDS011;40046;53.254;5.900;2023-08-21T11:32:20;5.35;;;1.40;;
54139;SDS011;40046;53.254;5.900;2023-08-21T11:34:51;6.57;;;1.50;;
54139;SDS011;40046;53.254;5.900;2023-08-21T11:37:18;6.10;;;1.65;;
54139;SDS011;40046;53.254;5.900;2023-08-21T11:39:45;6.88;;;1.40;;
54139;SDS011;40046;53.254;5.900;2023-08-21T11:42:12;7.15;;;2.22;;
54139;SDS011;40046;53.254;5.900;2023-08-21T11:44:46;9.45;;;1.90;;
54139;SDS011;40046;53.254;5.900;2023-08-21T11:47:12;6.97;;;1.77;;
54139;SDS011;40046;53.254;5.900;2023-08-21T11:49:39;7.45;;;1.65;;
54139;SDS011;40046;53.254;5.900;2023-08-21T11:52:10;6.55;;;2.13;;
54139;SDS011;40046;53.254;5.900;2023-08-21T11:54:36;9.30;;;1.63;;
54139;SDS011;40046;53.254;5.900;2023-08-21T11:57:12;6.43;;;1.40;;
54139;SDS011;40046;53.254;5.900;2023-08-21T11:59:39;7.40;;;1.73;;
54139;SDS011;40046;53.254;5.900;2023-08-21T12:02:22;7.30;;;2.17;;
54139;SDS011;40046;53.254;5.900;2023-08-21T12:05:07;6.68;;;2.30;;
54139;SDS011;40046;53.254;5.900;2023-08-21T12:07:38;7.13;;;2.65;;
54139;SDS011;40046;53.254;5.900;2023-08-21T12:10:04;5.78;;;2.20;;
54139;SDS011;40046;53.254;5.900;2023-08-21T12:12:30;7.65;;;2.58;;
54139;SDS011;40046;53.254;5.900;2023-08-21T12:14:56;7.50;;;2.00;;
54139;SDS011;40046;53.254;5.900;2023-08-21T12:17:23;6.30;;;1.83;;
54139;SDS011;40046;53.254;5.900;2023-08-21T12:19:49;10.70;;;2.10;;
54139;SDS011;40046;53.254;5.900;2023-08-21T12:22:15;12.05;;;2.90;;
54139;SDS011;40046;53.254;5.900;2023-08-21T12:24:41;6.80;;;1.90;;
54139;SDS011;40046;53.254;5.900;2023-08-21T12:27:07;7.75;;;2.22;;
54139;SDS011;40046;53.254;5.900;2023-08-21T12:29:34;9.70;;;2.20;;
54139;SDS011;40046;53.254;5.900;2023-08-21T12:32:00;8.77;;;1.80;;
54139;SDS011;40046;53.254;5.900;2023-08-21T12:34:27;8.75;;;3.38;;
54139;SDS011;40046;53.254;5.900;2023-08-21T12:36:53;5.47;;;1.70;;
54139;SDS011;40046;53.254;5.900;2023-08-21T12:39:19;7.07;;;2.30;;
54139;SDS011;40046;53.254;5.900;2023-08-21T12:41:47;6.50;;;1.88;;
54139;SDS011;40046;53.254;5.900;2023-08-21T12:44:13;13.30;;;2.88;;
54139;SDS011;40046;53.254;5.900;2023-08-21T12:46:40;10.80;;;2.20;;
54139;SDS011;40046;53.254;5.900;2023-08-21T12:49:06;9.23;;;2.10;;
54139;SDS011;40046;53.254;5.900;2023-08-21T12:51:32;8.80;;;2.40;;
54139;SDS011;40046;53.254;5.900;2023-08-21T12:53:58;5.72;;;1.90;;
54139;SDS011;40046;53.254;5.900;2023-08-21T12:56:24;8.88;;;1.70;;
54139;SDS011;40046;53.254;5.900;2023-08-21T12:58:50;7.63;;;2.45;;
54139;SDS011;40046;53.254;5.900;2023-08-21T13:01:17;6.53;;;1.67;;
54139;SDS011;40046;53.254;5.900;2023-08-21T13:03:43;10.50;;;2.30;;
54139;SDS011;40046;53.254;5.900;2023-08-21T13:06:10;8.00;;;1.95;;
54139;SDS011;40046;53.254;5.900;2023-08-21T13:08:37;6.57;;;1.90;;
54139;SDS011;40046;53.254;5.900;2023-08-21T13:11:03;7.95;;;2.30;;
54139;SDS011;40046;53.254;5.900;2023-08-21T13:13:30;9.35;;;2.60;;
54139;SDS011;40046;53.254;5.900;2023-08-21T13:15:56;9.75;;;3.00;;
54139;SDS011;40046;53.254;5.900;2023-08-21T13:18:23;13.95;;;3.63;;
54139;SDS011;40046;53.254;5.900;2023-08-21T13:20:50;8.93;;;2.63;;
54139;SDS011;40046;53.254;5.900;2023-08-21T13:23:16;11.38;;;3.88;;
54139;SDS011;40046;53.254;5.900;2023-08-21T13:25:42;7.30;;;3.00;;
54139;SDS011;40046;53.254;5.900;2023-08-21T13:28:08;9.75;;;3.15;;
54139;SDS011;40046;53.254;5.900;2023-08-21T13:30:34;6.85;;;2.78;;
54139;SDS011;40046;53.254;5.900;2023-08-21T13:33:00;7.68;;;2.80;;
54139;SDS011;40046;53.254;5.900;2023-08-21T13:35:26;7.20;;;2.47;;
54139;SDS011;40046;53.254;5.900;2023-08-21T13:37:52;6.70;;;2.08;;
54139;SDS011;40046;53.254;5.900;2023-08-21T13:40:19;11.35;;;3.20;;
54139;SDS011;40046;53.254;5.900;2023-08-21T13:42:46;7.18;;;2.70;;
54139;SDS011;40046;53.254;5.900;2023-08-21T13:45:13;6.15;;;2.28;;
54139;SDS011;40046;53.254;5.900;2023-08-21T13:47:40;8.18;;;2.30;;
54139;SDS011;40046;53.254;5.900;2023-08-21T13:50:06;8.20;;;2.17;;
54139;SDS011;40046;53.254;5.900;2023-08-21T13:52:33;11.13;;;2.92;;
54139;SDS011;40046;53.254;5.900;2023-08-21T13:55:00;6.55;;;1.80;;
54139;SDS011;40046;53.254;5.900;2023-08-21T13:57:27;5.80;;;1.40;;
54139;SDS011;40046;53.254;5.900;2023-08-21T13:59:53;7.50;;;1.80;;
54139;SDS011;40046;53.254;5.900;2023-08-21T14:02:20;5.85;;;2.42;;
54139;SDS011;40046;53.254;5.900;2023-08-21T14:04:48;6.43;;;2.38;;
54139;SDS011;40046;53.254;5.900;2023-08-21T14:07:14;6.03;;;1.85;;
54139;SDS011;40046;53.254;5.900;2023-08-21T14:09:40;9.68;;;1.95;;
54139;SDS011;40046;53.254;5.900;2023-08-21T14:12:07;8.10;;;2.15;;
54139;SDS011;40046;53.254;5.900;2023-08-21T14:14:35;7.55;;;1.38;;
54139;SDS011;40046;53.254;5.900;2023-08-21T14:17:01;6.40;;;1.45;;
54139;SDS011;40046;53.254;5.900;2023-08-21T14:19:29;6.97;;;2.15;;
54139;SDS011;40046;53.254;5.900;2023-08-21T14:21:55;6.65;;;1.30;;
54139;SDS011;40046;53.254;5.900;2023-08-21T14:24:21;5.65;;;1.48;;
54139;SDS011;40046;53.254;5.900;2023-08-21T14:26:47;6.88;;;1.73;;
54139;SDS011;40046;53.254;5.900;2023-08-21T14:29:13;10.13;;;2.38;;
54139;SDS011;40046;53.254;5.900;2023-08-21T14:31:39;4.72;;;1.48;;
54139;SDS011;40046;53.254;5.900;2023-08-21T14:34:05;6.18;;;2.83;;
54139;SDS011;40046;53.254;5.900;2023-08-21T14:36:31;6.40;;;1.50;;
54139;SDS011;40046;53.254;5.900;2023-08-21T14:38:58;7.20;;;2.08;;
54139;SDS011;40046;53.254;5.900;2023-08-21T14:41:24;6.95;;;1.70;;
54139;SDS011;40046;53.254;5.900;2023-08-21T14:43:51;6.45;;;1.42;;
54139;SDS011;40046;53.254;5.900;2023-08-21T14:46:18;8.00;;;2.13;;
54139;SDS011;40046;53.254;5.900;2023-08-21T14:48:44;7.00;;;2.13;;
54139;SDS011;40046;53.254;5.900;2023-08-21T14:51:10;5.60;;;1.58;;
54139;SDS011;40046;53.254;5.900;2023-08-21T14:53:36;6.63;;;1.60;;